Time;durP1;ratioP1;P1;durP2;ratioP2;P2;SDS_P1;SDS_P2;PMS_P1;PMS_P2;Temp;Humidity;BMP_temperature;BMP_pressure;BME280_temperature;BME280_humidity;BME280_pressure;Samples;Min_cycle;Max_cycle;Signal;HPM_P1;HPM_P2
2021/08/08 00:01:36;;;;;;;8.48;1.25;;;17.30;99.90;;;;;;5087859;28;20036;-52
2021/08/08 00:04:02;;;;;;;4.50;1.20;;;17.30;99.90;;;;;;5094446;28;20016;-52
2021/08/08 00:06:28;;;;;;;1.73;1.10;;;17.30;99.90;;;;;;5092996;28;20077;-51
2021/08/08 00:08:54;;;;;;;2.30;1.10;;;17.30;99.90;;;;;;5091751;28;20476;-51
2021/08/08 00:11:19;;;;;;;2.03;1.10;;;17.30;99.90;;;;;;5093866;28;20035;-54
2021/08/08 00:13:45;;;;;;;3.55;0.98;;;17.30;99.90;;;;;;5088305;28;20032;-51
2021/08/08 00:16:10;;;;;;;3.28;1.10;;;17.20;99.90;;;;;;5092871;28;20028;-53
2021/08/08 00:18:36;;;;;;;1.95;1.17;;;17.30;99.90;;;;;;5087842;28;20034;-54
2021/08/08 00:21:01;;;;;;;6.10;1.40;;;17.30;99.90;;;;;;5086466;28;20035;-54
2021/08/08 00:23:27;;;;;;;6.22;1.60;;;17.30;99.90;;;;;;5093077;28;20035;-52
2021/08/08 00:25:53;;;;;;;5.97;1.42;;;17.30;99.90;;;;;;5092638;28;20394;-53
2021/08/08 00:28:18;;;;;;;5.35;1.52;;;17.30;99.90;;;;;;5092158;28;20576;-54
2021/08/08 00:30:44;;;;;;;4.93;1.67;;;17.30;99.90;;;;;;5091915;28;20035;-57
2021/08/08 00:33:09;;;;;;;7.20;1.60;;;17.30;99.90;;;;;;5093217;28;20028;-50
2021/08/08 00:35:35;;;;;;;3.50;1.50;;;17.30;99.90;;;;;;5089306;28;20078;-52
2021/08/08 00:38:01;;;;;;;7.43;1.52;;;17.30;99.90;;;;;;5093258;28;20066;-55
2021/08/08 00:40:27;;;;;;;5.82;1.80;;;17.40;99.90;;;;;;5089716;28;20078;-56
2021/08/08 00:42:53;;;;;;;2.63;1.52;;;17.40;99.90;;;;;;5087612;28;20036;-56
2021/08/08 00:45:21;;;;;;;5.57;1.85;;;17.40;99.90;;;;;;5092714;28;20038;-54
2021/08/08 00:47:47;;;;;;;4.95;1.58;;;17.40;99.90;;;;;;5091463;28;20074;-51
2021/08/08 00:50:14;;;;;;;6.25;1.40;;;17.50;99.90;;;;;;5084751;28;20079;-53
2021/08/08 00:52:40;;;;;;;8.70;1.80;;;17.50;99.90;;;;;;5087227;28;20024;-54
2021/08/08 00:55:08;;;;;;;4.45;2.08;;;17.50;99.90;;;;;;5092466;28;20035;-56
2021/08/08 00:57:33;;;;;;;4.00;1.83;;;17.50;99.90;;;;;;5086688;28;20056;-56
2021/08/08 01:00:03;;;;;;;13.85;1.90;;;17.50;99.90;;;;;;5078676;28;20047;-53
2021/08/08 01:02:31;;;;;;;6.30;2.17;;;17.50;99.90;;;;;;5086646;28;20071;-52
2021/08/08 01:05:08;;;;;;;3.00;1.50;;;17.60;99.90;;;;;;5087761;28;20074;-51
2021/08/08 01:08:02;;;;;;;5.05;1.92;;;17.60;99.90;;;;;;5090250;28;20089;-55
2021/08/08 01:10:28;;;;;;;4.28;1.88;;;17.60;99.90;;;;;;5091992;28;20028;-54
2021/08/08 01:12:55;;;;;;;5.05;1.92;;;17.60;99.90;;;;;;5088158;28;20552;-52
2021/08/08 01:15:22;;;;;;;7.75;2.10;;;17.60;99.90;;;;;;5089042;28;20028;-51
2021/08/08 01:17:48;;;;;;;8.15;2.55;;;17.70;99.90;;;;;;5092760;28;20032;-54
2021/08/08 01:20:15;;;;;;;8.13;1.85;;;17.70;99.90;;;;;;5087351;28;20023;-54
2021/08/08 01:22:48;;;;;;;7.05;1.83;;;17.70;99.90;;;;;;5089223;28;20718;-53
2021/08/08 01:25:14;;;;;;;8.63;1.80;;;17.70;99.90;;;;;;5090823;28;20029;-52
2021/08/08 01:27:40;;;;;;;5.85;1.98;;;17.70;99.90;;;;;;5088216;28;20412;-51
2021/08/08 01:30:08;;;;;;;6.13;1.67;;;17.70;99.90;;;;;;5091100;28;20028;-50
2021/08/08 01:32:34;;;;;;;4.45;1.50;;;17.70;99.90;;;;;;5092001;28;20060;-52
2021/08/08 01:35:00;;;;;;;5.03;1.50;;;17.70;99.90;;;;;;5091514;28;20078;-52
2021/08/08 01:37:28;;;;;;;12.13;2.05;;;17.70;99.90;;;;;;5092001;28;20028;-52
2021/08/08 01:40:15;;;;;;;4.38;1.88;;;17.70;99.90;;;;;;5087980;28;20027;-53
2021/08/08 01:42:42;;;;;;;5.82;1.95;;;17.70;99.90;;;;;;5089337;28;20583;-52
2021/08/08 01:45:13;;;;;;;10.82;2.35;;;17.70;99.90;;;;;;5089493;28;20433;-55
2021/08/08 01:47:43;;;;;;;7.97;2.08;;;17.70;99.90;;;;;;5092250;28;20024;-52
2021/08/08 01:50:10;;;;;;;6.80;2.28;;;17.70;99.90;;;;;;5091447;28;20038;-50
2021/08/08 01:52:35;;;;;;;10.85;2.30;;;17.70;99.90;;;;;;5084494;28;20031;-50
2021/08/08 01:55:01;;;;;;;3.95;1.50;;;17.70;99.90;;;;;;5084487;28;20466;-52
2021/08/08 01:57:27;;;;;;;10.00;1.70;;;17.70;99.90;;;;;;5091168;28;20031;-51
2021/08/08 01:59:53;;;;;;;6.72;1.80;;;17.70;99.90;;;;;;5091589;28;20020;-52
2021/08/08 02:02:18;;;;;;;8.85;2.10;;;17.70;99.90;;;;;;5087107;28;20403;-55
2021/08/08 02:04:45;;;;;;;8.98;2.33;;;17.70;99.90;;;;;;5087128;28;20530;-51
2021/08/08 02:07:14;;;;;;;6.80;2.08;;;17.70;99.90;;;;;;5090946;28;20081;-51
2021/08/08 02:09:40;;;;;;;10.98;2.17;;;17.60;99.90;;;;;;5091256;28;20517;-54
2021/08/08 02:12:07;;;;;;;5.53;1.98;;;17.60;99.90;;;;;;5083525;28;20507;-52
2021/08/08 02:14:33;;;;;;;10.20;2.40;;;17.60;99.90;;;;;;5084278;28;20028;-54
2021/08/08 02:16:58;;;;;;;7.07;2.10;;;17.60;99.90;;;;;;5084882;28;20039;-52
2021/08/08 02:19:24;;;;;;;8.45;1.92;;;17.60;99.90;;;;;;5091735;28;20016;-52
2021/08/08 02:21:50;;;;;;;13.43;3.00;;;17.60;99.90;;;;;;5090317;28;20039;-51
2021/08/08 02:24:16;;;;;;;6.15;1.77;;;17.60;99.90;;;;;;5091324;28;20387;-56
2021/08/08 02:26:42;;;;;;;6.60;2.28;;;17.50;99.90;;;;;;5086491;28;20028;-56
2021/08/08 02:29:07;;;;;;;14.27;2.75;;;17.50;99.90;;;;;;5089180;28;20048;-53
2021/08/08 02:31:37;;;;;;;14.32;1.95;;;17.50;99.90;;;;;;5090865;28;20024;-53
2021/08/08 02:34:04;;;;;;;9.13;1.92;;;17.50;99.90;;;;;;5089162;28;20074;-54
2021/08/08 02:36:29;;;;;;;12.63;2.10;;;17.50;99.90;;;;;;5089055;28;20399;-56
2021/08/08 02:38:55;;;;;;;6.60;2.20;;;17.40;99.90;;;;;;5089871;28;20039;-52
2021/08/08 02:41:20;;;;;;;9.20;2.55;;;17.40;99.90;;;;;;5081392;28;20031;-56
2021/08/08 02:43:46;;;;;;;10.50;2.13;;;17.40;99.90;;;;;;5086850;28;20028;-55
2021/08/08 02:46:11;;;;;;;3.90;1.80;;;17.40;99.90;;;;;;5088547;28;20036;-52
2021/08/08 02:48:37;;;;;;;6.35;1.98;;;17.40;99.90;;;;;;5090072;28;20032;-54
2021/08/08 02:51:03;;;;;;;7.95;1.70;;;17.30;99.90;;;;;;5090429;28;20028;-54
2021/08/08 02:53:28;;;;;;;10.98;2.65;;;17.30;99.90;;;;;;5089065;28;20028;-53
2021/08/08 02:55:54;;;;;;;7.22;1.98;;;17.30;99.90;;;;;;5088898;28;20032;-57
2021/08/08 02:58:19;;;;;;;11.20;2.08;;;17.30;99.90;;;;;;5083661;28;20502;-54
2021/08/08 03:00:45;;;;;;;7.63;1.55;;;17.30;99.90;;;;;;5090249;28;20089;-56
2021/08/08 03:03:10;;;;;;;4.95;2.28;;;17.30;99.90;;;;;;5085172;28;20063;-52
2021/08/08 03:05:36;;;;;;;10.63;2.50;;;17.20;99.90;;;;;;5076916;28;20032;-52
2021/08/08 03:08:02;;;;;;;10.15;2.03;;;17.20;99.90;;;;;;5089023;28;20102;-55
2021/08/08 03:10:27;;;;;;;5.10;1.75;;;17.20;99.90;;;;;;5083147;28;20028;-50
2021/08/08 03:12:53;;;;;;;9.52;1.70;;;17.10;99.90;;;;;;5090647;28;20024;-56
2021/08/08 03:15:18;;;;;;;10.02;2.50;;;17.10;99.90;;;;;;5084400;28;20039;-56
2021/08/08 03:17:44;;;;;;;6.93;2.15;;;17.10;99.90;;;;;;5090489;28;20040;-53
2021/08/08 03:20:10;;;;;;;11.95;2.20;;;17.00;99.90;;;;;;5090522;28;20032;-55
2021/08/08 03:22:35;;;;;;;12.43;3.25;;;17.10;99.90;;;;;;5090085;28;20039;-55
2021/08/08 03:25:01;;;;;;;10.65;1.88;;;17.10;99.90;;;;;;5088084;28;20066;-55
2021/08/08 03:27:26;;;;;;;7.90;2.08;;;17.10;99.90;;;;;;5090188;28;20058;-57
2021/08/08 03:29:52;;;;;;;8.95;2.30;;;17.00;99.90;;;;;;5088109;28;20069;-54
2021/08/08 03:32:18;;;;;;;16.88;2.75;;;17.00;99.90;;;;;;5090713;28;20356;-54
2021/08/08 03:34:43;;;;;;;6.45;1.80;;;17.00;99.90;;;;;;5081097;28;20044;-56
2021/08/08 03:37:10;;;;;;;13.10;2.42;;;17.00;99.90;;;;;;5087250;28;20158;-52
2021/08/08 03:39:35;;;;;;;7.38;1.90;;;16.90;99.90;;;;;;5088015;28;20024;-54
2021/08/08 03:42:01;;;;;;;10.38;2.40;;;17.00;99.90;;;;;;5090095;28;20027;-55
2021/08/08 03:44:26;;;;;;;6.65;2.15;;;17.00;99.90;;;;;;5088648;28;20107;-51
2021/08/08 03:46:52;;;;;;;12.40;2.45;;;17.00;99.90;;;;;;5088484;28;20062;-52
2021/08/08 03:49:18;;;;;;;11.00;2.30;;;17.00;99.90;;;;;;5090220;28;20107;-51
2021/08/08 03:51:44;;;;;;;12.82;3.10;;;16.90;99.90;;;;;;5089352;28;20028;-55
2021/08/08 03:54:09;;;;;;;8.07;2.40;;;16.90;99.90;;;;;;5088690;28;20051;-54
2021/08/08 03:56:35;;;;;;;8.10;2.63;;;16.90;99.90;;;;;;5085469;28;20109;-55
2021/08/08 03:59:01;;;;;;;10.80;2.80;;;16.80;99.90;;;;;;5084136;28;20028;-52
2021/08/08 04:01:27;;;;;;;10.02;2.50;;;16.70;99.90;;;;;;5087449;28;20039;-50
2021/08/08 04:03:52;;;;;;;10.30;2.40;;;16.60;99.90;;;;;;5084681;28;20487;-51
2021/08/08 04:06:18;;;;;;;9.85;2.50;;;16.50;99.90;;;;;;5087444;28;20051;-55
2021/08/08 04:08:43;;;;;;;7.95;2.13;;;16.50;99.90;;;;;;5088302;28;20040;-52
2021/08/08 04:11:14;;;;;;;10.45;2.55;;;16.40;99.90;;;;;;5089780;28;20032;-56
2021/08/08 04:13:40;;;;;;;11.50;2.30;;;16.40;99.90;;;;;;5083410;28;20435;-56
2021/08/08 04:16:06;;;;;;;9.05;2.20;;;16.50;99.90;;;;;;5083413;28;20081;-53
2021/08/08 04:18:32;;;;;;;13.95;2.72;;;16.50;99.90;;;;;;5088939;28;20418;-54
2021/08/08 04:20:57;;;;;;;12.00;2.80;;;16.40;99.90;;;;;;5080289;28;20025;-56
2021/08/08 04:23:23;;;;;;;13.00;3.25;;;16.40;99.90;;;;;;5086323;28;20036;-55
2021/08/08 04:25:48;;;;;;;8.18;2.53;;;16.50;99.90;;;;;;5089100;28;20078;-51
2021/08/08 04:28:14;;;;;;;13.35;3.35;;;16.50;99.90;;;;;;5086639;28;20029;-53
2021/08/08 04:30:40;;;;;;;12.68;2.53;;;16.50;99.90;;;;;;5086714;28;20024;-52
2021/08/08 04:33:06;;;;;;;8.98;2.33;;;16.50;99.90;;;;;;5089197;28;20078;-55
2021/08/08 04:35:33;;;;;;;11.82;3.25;;;16.60;99.90;;;;;;5087690;28;20032;-54
2021/08/08 04:38:00;;;;;;;10.45;2.55;;;16.60;99.90;;;;;;5087812;28;20035;-56
2021/08/08 04:40:26;;;;;;;18.85;2.78;;;16.60;99.90;;;;;;5089556;28;20526;-54
2021/08/08 04:42:51;;;;;;;16.65;3.65;;;16.60;99.90;;;;;;5089544;28;20059;-55
2021/08/08 04:45:19;;;;;;;13.85;2.95;;;16.50;99.90;;;;;;5088652;28;20067;-54
2021/08/08 04:47:45;;;;;;;14.55;3.17;;;16.50;99.90;;;;;;5087583;28;20043;-55
2021/08/08 04:50:11;;;;;;;11.75;2.75;;;16.50;99.90;;;;;;5090700;28;20092;-56
2021/08/08 04:52:37;;;;;;;9.50;3.05;;;16.50;99.90;;;;;;5091204;28;20099;-55
2021/08/08 04:55:04;;;;;;;9.77;2.90;;;16.40;99.90;;;;;;5091147;28;20107;-52
2021/08/08 04:57:29;;;;;;;11.35;3.03;;;16.40;99.90;;;;;;5091467;28;20024;-55
2021/08/08 04:59:55;;;;;;;15.57;3.10;;;16.50;99.90;;;;;;5089998;28;20081;-54
2021/08/08 05:02:21;;;;;;;9.55;2.30;;;16.50;99.90;;;;;;5091238;28;20080;-53
2021/08/08 05:04:47;;;;;;;12.63;3.17;;;16.50;99.90;;;;;;5087141;28;20507;-50
2021/08/08 05:07:12;;;;;;;16.48;3.20;;;16.50;99.90;;;;;;5089031;28;20053;-55
2021/08/08 05:09:38;;;;;;;8.50;2.60;;;16.60;99.90;;;;;;5090040;28;20020;-53
2021/08/08 05:12:04;;;;;;;13.23;2.85;;;16.60;99.90;;;;;;5090951;28;20031;-56
2021/08/08 05:14:30;;;;;;;9.73;2.60;;;16.70;99.90;;;;;;5090983;28;20128;-52
2021/08/08 05:16:55;;;;;;;12.88;2.95;;;16.70;99.90;;;;;;5088762;28;20106;-52
2021/08/08 05:19:21;;;;;;;13.48;3.15;;;16.70;99.90;;;;;;5089622;28;20020;-53
2021/08/08 05:21:47;;;;;;;14.15;2.60;;;16.70;99.90;;;;;;5086885;28;20027;-54
2021/08/08 05:24:12;;;;;;;15.00;3.28;;;16.70;99.90;;;;;;5086238;28;20027;-55
2021/08/08 05:26:38;;;;;;;16.85;3.22;;;16.80;99.90;;;;;;5087960;28;20403;-53
2021/08/08 05:29:03;;;;;;;11.98;2.80;;;16.80;99.90;;;;;;5088945;28;20028;-54
2021/08/08 05:31:29;;;;;;;9.88;2.78;;;16.80;99.90;;;;;;5086808;28;20031;-54
2021/08/08 05:33:55;;;;;;;10.80;2.70;;;16.80;99.90;;;;;;5088766;28;20028;-55
2021/08/08 05:36:20;;;;;;;8.57;2.72;;;16.90;99.90;;;;;;5083351;28;20028;-52
2021/08/08 05:38:46;;;;;;;4.90;1.95;;;16.90;99.90;;;;;;5090029;28;20112;-55
2021/08/08 05:41:12;;;;;;;11.27;2.50;;;16.90;99.90;;;;;;5091385;28;20536;-53
2021/08/08 05:43:38;;;;;;;10.75;2.38;;;17.00;99.90;;;;;;5092355;28;20055;-51
2021/08/08 05:46:04;;;;;;;13.13;3.20;;;17.00;99.90;;;;;;5089741;28;20089;-53
2021/08/08 05:48:29;;;;;;;14.43;3.17;;;17.00;99.90;;;;;;5089905;28;20024;-53
2021/08/08 05:50:55;;;;;;;10.23;2.90;;;17.10;99.90;;;;;;5088783;28;20574;-53
2021/08/08 05:53:20;;;;;;;11.45;2.72;;;17.10;99.90;;;;;;5087639;28;20099;-54
2021/08/08 05:55:46;;;;;;;10.82;2.53;;;17.10;99.90;;;;;;5087185;28;20124;-55
2021/08/08 05:58:13;;;;;;;9.35;2.38;;;17.10;99.90;;;;;;5082902;28;20020;-55
2021/08/08 06:00:40;;;;;;;6.90;2.10;;;17.20;99.90;;;;;;5090361;28;20036;-51
2021/08/08 06:03:07;;;;;;;14.57;2.88;;;17.20;99.90;;;;;;5090261;28;20548;-50
2021/08/08 06:05:32;;;;;;;10.32;2.50;;;17.20;99.90;;;;;;5089387;28;20088;-54
2021/08/08 06:07:58;;;;;;;10.65;2.47;;;17.30;99.90;;;;;;5088819;28;20688;-51
2021/08/08 06:10:24;;;;;;;10.40;2.67;;;17.20;99.90;;;;;;5087613;28;20123;-53
2021/08/08 06:12:49;;;;;;;9.45;2.92;;;17.30;99.90;;;;;;5089162;28;20070;-52
2021/08/08 06:15:15;;;;;;;10.77;2.53;;;17.30;99.90;;;;;;5088075;28;20058;-52
2021/08/08 06:17:40;;;;;;;7.00;2.20;;;17.30;99.90;;;;;;5089853;28;20103;-51
2021/08/08 06:20:07;;;;;;;10.93;2.00;;;17.30;99.90;;;;;;5088112;28;20016;-51
2021/08/08 06:22:33;;;;;;;8.23;2.25;;;17.40;99.90;;;;;;5089128;28;20080;-50
2021/08/08 06:24:58;;;;;;;8.82;2.33;;;17.40;99.90;;;;;;5089262;28;20024;-53
2021/08/08 06:27:24;;;;;;;11.10;2.65;;;17.40;99.90;;;;;;5089442;28;20024;-54
2021/08/08 06:29:49;;;;;;;7.95;2.42;;;17.40;99.90;;;;;;5085251;28;20032;-51
2021/08/08 06:32:15;;;;;;;7.50;2.60;;;17.40;99.90;;;;;;5091279;28;20437;-51
2021/08/08 06:34:42;;;;;;;7.15;2.20;;;17.50;99.90;;;;;;5078354;28;20086;-50
2021/08/08 06:37:09;;;;;;;14.23;2.75;;;17.50;99.90;;;;;;5090395;28;20028;-55
2021/08/08 06:39:34;;;;;;;9.82;2.70;;;17.50;99.90;;;;;;5090050;28;20063;-52
2021/08/08 06:42:00;;;;;;;10.93;2.03;;;17.50;99.90;;;;;;5086513;28;20453;-53
2021/08/08 06:44:28;;;;;;;8.30;2.42;;;17.50;99.90;;;;;;5089991;28;20024;-51
2021/08/08 06:46:54;;;;;;;7.25;2.15;;;17.60;99.90;;;;;;5090996;28;20043;-51
2021/08/08 06:49:19;;;;;;;11.98;2.83;;;17.70;99.90;;;;;;5087251;28;20043;-55
2021/08/08 06:51:45;;;;;;;7.40;2.00;;;17.70;99.90;;;;;;5090445;28;20157;-55
2021/08/08 06:54:12;;;;;;;7.15;2.10;;;17.80;99.90;;;;;;5089988;28;20047;-54
2021/08/08 06:56:38;;;;;;;6.57;1.73;;;17.70;99.90;;;;;;5083826;28;20032;-54
2021/08/08 06:59:03;;;;;;;11.30;2.70;;;17.80;99.90;;;;;;5089908;28;20029;-52
2021/08/08 07:01:29;;;;;;;8.90;2.38;;;17.80;99.90;;;;;;5088009;28;20032;-50
2021/08/08 07:03:55;;;;;;;9.13;1.90;;;17.80;99.90;;;;;;5090165;28;20029;-52
2021/08/08 07:06:20;;;;;;;13.70;2.40;;;17.70;99.90;;;;;;5089420;28;20024;-55
2021/08/08 07:08:46;;;;;;;13.82;2.80;;;17.70;99.90;;;;;;5089596;28;20510;-54
2021/08/08 07:11:11;;;;;;;15.63;2.78;;;17.80;99.90;;;;;;5086839;28;20059;-53
2021/08/08 07:13:41;;;;;;;7.68;2.20;;;17.90;99.90;;;;;;5087702;28;20031;-56
2021/08/08 07:16:07;;;;;;;11.43;2.35;;;17.90;99.90;;;;;;5088034;28;20028;-56
2021/08/08 07:18:33;;;;;;;8.05;2.28;;;17.90;99.90;;;;;;5089969;28;20111;-50
2021/08/08 07:20:59;;;;;;;7.20;2.25;;;18.00;99.90;;;;;;5088078;28;20036;-53
2021/08/08 07:23:24;;;;;;;12.20;2.15;;;18.00;99.90;;;;;;5090511;28;20028;-54
2021/08/08 07:25:50;;;;;;;8.90;2.42;;;18.00;99.90;;;;;;5089232;28;20039;-50
2021/08/08 07:28:15;;;;;;;10.63;2.15;;;18.00;99.90;;;;;;5090094;28;20027;-52
2021/08/08 07:30:41;;;;;;;9.20;2.70;;;18.00;99.90;;;;;;5088836;28;20103;-54
2021/08/08 07:33:07;;;;;;;12.90;2.80;;;18.10;99.90;;;;;;5089886;28;20056;-56
2021/08/08 07:35:35;;;;;;;10.00;2.53;;;18.20;99.90;;;;;;5088361;28;20024;-53
2021/08/08 07:38:01;;;;;;;8.18;2.00;;;18.30;99.90;;;;;;5083951;28;20380;-52
2021/08/08 07:40:27;;;;;;;8.48;2.22;;;18.20;99.90;;;;;;5084819;28;20042;-51
2021/08/08 07:42:52;;;;;;;10.77;2.20;;;18.20;99.90;;;;;;5090208;28;20039;-50
2021/08/08 07:45:18;;;;;;;9.20;2.10;;;18.20;99.90;;;;;;5084106;28;20376;-54
2021/08/08 07:47:44;;;;;;;11.10;2.42;;;18.20;99.90;;;;;;5088456;28;20035;-51
2021/08/08 07:50:10;;;;;;;8.80;2.08;;;18.10;99.90;;;;;;5087561;28;20526;-51
2021/08/08 07:52:36;;;;;;;12.05;2.80;;;18.10;99.90;;;;;;5089190;28;20032;-54
2021/08/08 07:55:04;;;;;;;11.88;2.55;;;18.10;99.90;;;;;;5085209;28;20078;-54
2021/08/08 07:57:29;;;;;;;8.70;2.47;;;18.20;99.90;;;;;;5091212;28;20028;-53
2021/08/08 07:59:55;;;;;;;8.32;2.25;;;18.10;99.90;;;;;;5088508;28;20400;-58
2021/08/08 08:02:20;;;;;;;8.57;2.58;;;18.10;99.90;;;;;;5082395;28;20495;-59
2021/08/08 08:04:46;;;;;;;10.43;2.58;;;18.20;99.90;;;;;;5084604;28;20590;-59
2021/08/08 08:07:12;;;;;;;8.27;2.53;;;18.20;99.90;;;;;;5084752;28;20025;-60
2021/08/08 08:09:37;;;;;;;11.05;3.38;;;18.20;99.90;;;;;;5080222;28;20028;-60
2021/08/08 08:12:03;;;;;;;5.50;2.28;;;18.30;99.90;;;;;;5088247;28;20069;-59
2021/08/08 08:14:29;;;;;;;13.38;2.78;;;18.40;99.90;;;;;;5086900;28;20024;-59
2021/08/08 08:16:54;;;;;;;8.20;1.95;;;18.50;99.90;;;;;;5089367;28;20031;-56
2021/08/08 08:19:20;;;;;;;7.82;2.17;;;18.60;99.90;;;;;;5080445;28;20020;-56
2021/08/08 08:21:47;;;;;;;12.35;2.15;;;18.70;99.90;;;;;;5090332;28;20027;-59
2021/08/08 08:24:13;;;;;;;12.43;2.63;;;18.70;99.90;;;;;;5092175;28;20545;-58
2021/08/08 08:26:39;;;;;;;9.35;2.03;;;18.70;99.90;;;;;;5088321;28;20140;-60
2021/08/08 08:29:05;;;;;;;14.63;3.05;;;18.80;99.90;;;;;;5092274;28;20566;-61
2021/08/08 08:31:31;;;;;;;12.38;2.10;;;18.90;99.90;;;;;;5091981;28;20149;-59
2021/08/08 08:33:57;;;;;;;10.38;2.83;;;18.90;99.90;;;;;;5089713;28;20103;-57
2021/08/08 08:36:23;;;;;;;10.65;2.03;;;19.00;99.90;;;;;;5092224;28;20436;-57
2021/08/08 08:38:48;;;;;;;8.52;2.50;;;19.10;99.90;;;;;;5091564;28;20032;-60
2021/08/08 08:41:16;;;;;;;9.13;2.53;;;19.20;99.90;;;;;;5088740;28;20031;-59
2021/08/08 08:43:43;;;;;;;6.70;2.08;;;19.10;99.90;;;;;;5092120;28;20074;-59
2021/08/08 08:46:14;;;;;;;11.13;2.42;;;19.10;99.90;;;;;;5089313;28;20220;-60
2021/08/08 08:48:41;;;;;;;9.15;2.10;;;19.10;99.90;;;;;;5091833;28;20511;-59
2021/08/08 08:51:08;;;;;;;7.05;1.70;;;19.00;99.90;;;;;;5088711;28;20035;-59
2021/08/08 08:53:34;;;;;;;12.93;1.88;;;19.10;99.90;;;;;;5085992;28;20097;-61
2021/08/08 08:56:03;;;;;;;6.97;2.00;;;19.30;99.90;;;;;;5086067;28;20035;-61
2021/08/08 08:58:30;;;;;;;12.27;2.40;;;19.40;99.90;;;;;;5088763;28;20027;-59
2021/08/08 09:00:56;;;;;;;10.77;2.35;;;19.50;99.90;;;;;;5091104;28;20127;-57
2021/08/08 09:03:21;;;;;;;12.93;2.60;;;19.60;99.90;;;;;;5086419;28;20112;-59
2021/08/08 09:05:47;;;;;;;6.30;1.67;;;19.40;99.90;;;;;;5083701;28;20115;-60
2021/08/08 09:08:13;;;;;;;10.65;2.10;;;19.50;99.90;;;;;;5080520;28;20024;-60
2021/08/08 09:10:40;;;;;;;8.10;1.60;;;19.20;99.90;;;;;;5092001;28;20028;-59
2021/08/08 09:13:06;;;;;;;8.00;2.17;;;19.20;99.90;;;;;;5086750;28;20038;-60
2021/08/08 09:15:41;;;;;;;12.70;2.30;;;19.10;99.90;;;;;;5085852;28;20095;-59
2021/08/08 09:18:17;;;;;;;6.05;1.77;;;19.10;99.90;;;;;;5090774;28;20587;-59
2021/08/08 09:20:45;;;;;;;14.10;2.60;;;19.10;99.90;;;;;;5085442;28;20055;-60
2021/08/08 09:23:12;;;;;;;6.57;2.47;;;19.10;99.90;;;;;;5084328;28;20090;-59
2021/08/08 09:25:51;;;;;;;5.20;1.60;;;19.00;99.90;;;;;;5080550;28;20028;-59
2021/08/08 09:28:16;;;;;;;5.32;1.60;;;19.10;99.90;;;;;;5079100;28;20468;-57
2021/08/08 09:30:43;;;;;;;5.80;2.05;;;19.20;99.90;;;;;;5088629;28;20026;-59
2021/08/08 09:33:10;;;;;;;9.00;2.08;;;19.40;99.90;;;;;;5087309;28;20051;-60
2021/08/08 09:35:38;;;;;;;8.88;2.88;;;19.40;99.90;;;;;;5087719;28;20024;-61
2021/08/08 09:38:09;;;;;;;12.65;2.33;;;19.60;99.90;;;;;;5085672;28;20107;-58
2021/08/08 09:40:39;;;;;;;10.98;1.77;;;19.90;99.90;;;;;;5085081;28;20020;-58
2021/08/08 09:43:06;;;;;;;12.02;2.33;;;20.20;99.90;;;;;;5085024;28;20035;-60
2021/08/08 09:45:43;;;;;;;7.85;1.80;;;20.40;99.90;;;;;;5083217;28;20047;-60
2021/08/08 09:48:13;;;;;;;12.68;2.08;;;20.70;99.90;;;;;;5086543;28;20024;-60
2021/08/08 09:50:40;;;;;;;6.65;1.60;;;20.60;99.90;;;;;;5084374;28;20028;-57
2021/08/08 09:53:10;;;;;;;6.97;1.55;;;20.70;99.90;;;;;;5078157;28;20032;-59
2021/08/08 09:55:38;;;;;;;7.35;1.90;;;20.60;99.90;;;;;;5087403;28;20081;-58
2021/08/08 09:58:06;;;;;;;8.27;1.92;;;20.30;99.90;;;;;;5089083;28;20021;-55
2021/08/08 10:00:34;;;;;;;9.45;1.85;;;19.90;99.90;;;;;;5082711;28;20426;-59
2021/08/08 10:03:01;;;;;;;8.13;1.73;;;19.90;99.90;;;;;;5079617;28;20020;-59
2021/08/08 10:05:29;;;;;;;8.30;2.50;;;20.00;99.90;;;;;;5084091;28;20144;-59
2021/08/08 10:07:55;;;;;;;6.95;1.42;;;20.00;99.90;;;;;;5085099;28;20032;-58
2021/08/08 10:10:22;;;;;;;9.77;1.67;;;19.80;99.90;;;;;;5079692;28;20024;-60
2021/08/08 10:13:12;;;;;;;7.20;2.00;;;19.80;99.90;;;;;;5085166;28;20032;-60
2021/08/08 10:15:46;;;;;;;10.95;2.03;;;19.90;99.90;;;;;;5083492;28;20016;-60
2021/08/08 10:18:16;;;;;;;10.20;1.90;;;19.90;99.90;;;;;;5089220;28;20100;-61
2021/08/08 10:20:43;;;;;;;14.55;3.00;;;19.70;99.90;;;;;;5085892;28;20035;-61
2021/08/08 10:23:17;;;;;;;8.63;1.80;;;19.80;99.90;;;;;;5088755;28;20028;-60
2021/08/08 10:25:48;;;;;;;8.77;1.60;;;20.20;99.90;;;;;;5083707;28;20059;-60
2021/08/08 10:28:14;;;;;;;6.68;1.63;;;20.60;99.90;;;;;;5088146;28;20036;-59
2021/08/08 10:30:40;;;;;;;7.45;1.77;;;20.90;99.90;;;;;;5081097;28;20032;-60
2021/08/08 10:33:07;;;;;;;7.72;1.30;;;20.80;99.90;;;;;;5078164;28;20495;-61
2021/08/08 10:35:45;;;;;;;11.52;1.80;;;20.80;99.90;;;;;;5076599;28;20085;-60
2021/08/08 10:38:11;;;;;;;6.65;1.70;;;20.50;99.90;;;;;;5086618;28;20024;-60
2021/08/08 10:40:39;;;;;;;4.78;1.50;;;20.40;99.90;;;;;;5086679;28;20028;-59
2021/08/08 10:43:06;;;;;;;4.78;1.58;;;20.40;99.90;;;;;;5085558;28;20028;-59
2021/08/08 10:45:34;;;;;;;7.50;1.73;;;20.40;99.90;;;;;;5081917;28;20759;-59
2021/08/08 10:48:11;;;;;;;8.68;1.65;;;20.40;99.90;;;;;;5085131;28;20391;-58
2021/08/08 10:50:43;;;;;;;6.28;1.63;;;20.40;99.90;;;;;;5083803;28;20093;-59
2021/08/08 10:53:20;;;;;;;7.03;1.73;;;20.30;99.90;;;;;;5084387;28;20032;-58
2021/08/08 10:55:47;;;;;;;8.90;1.92;;;20.30;99.90;;;;;;5080301;28;20055;-59
2021/08/08 10:58:15;;;;;;;8.63;1.80;;;20.40;99.90;;;;;;5084260;28;20024;-58
2021/08/08 11:00:41;;;;;;;10.35;2.08;;;20.50;99.90;;;;;;5084568;28;20048;-59
2021/08/08 11:03:14;;;;;;;6.50;1.60;;;20.60;99.90;;;;;;5082868;28;20535;-59
2021/08/08 11:05:41;;;;;;;6.90;2.03;;;20.60;99.90;;;;;;5083058;28;20100;-56
2021/08/08 11:08:08;;;;;;;6.32;1.45;;;20.70;99.90;;;;;;5081041;28;20047;-59
2021/08/08 11:10:41;;;;;;;8.05;1.63;;;20.50;99.90;;;;;;5081018;28;20036;-61
2021/08/08 11:13:20;;;;;;;9.32;1.73;;;20.60;99.90;;;;;;5086159;28;20020;-57
2021/08/08 11:15:46;;;;;;;10.82;1.75;;;20.50;99.90;;;;;;5077216;28;20495;-60
2021/08/08 11:18:13;;;;;;;8.15;1.52;;;20.60;99.90;;;;;;5085850;28;20799;-59
2021/08/08 11:20:38;;;;;;;10.50;1.48;;;20.60;99.90;;;;;;5086395;28;20061;-58
2021/08/08 11:23:04;;;;;;;3.78;1.60;;;20.80;99.90;;;;;;5093707;28;20434;-60
2021/08/08 11:25:42;;;;;;;6.78;1.63;;;20.90;99.90;;;;;;5081395;28;20088;-61
2021/08/08 11:28:08;;;;;;;5.18;1.38;;;21.10;99.90;;;;;;5091891;28;20551;-59
2021/08/08 11:30:45;;;;;;;8.50;1.33;;;21.20;99.90;;;;;;5087082;28;20024;-61
2021/08/08 11:33:12;;;;;;;6.63;1.42;;;20.90;99.90;;;;;;5089922;28;20036;-61
2021/08/08 11:35:39;;;;;;;6.93;1.60;;;20.90;99.90;;;;;;5083421;28;20495;-57
2021/08/08 11:38:16;;;;;;;8.90;1.55;;;20.90;99.90;;;;;;5095035;28;20064;-59
2021/08/08 11:40:44;;;;;;;7.95;1.95;;;20.90;99.90;;;;;;5079854;28;20392;-59
2021/08/08 11:43:11;;;;;;;10.18;2.80;;;20.90;99.90;;;;;;5093977;28;20093;-61
2021/08/08 11:45:46;;;;;;;7.10;2.33;;;20.60;99.90;;;;;;5087918;28;20099;-59
2021/08/08 11:48:15;;;;;;;4.85;2.40;;;20.60;99.90;;;;;;5094727;28;20020;-60
2021/08/08 11:50:41;;;;;;;7.32;1.55;;;20.60;99.90;;;;;;5092716;28;20028;-60
2021/08/08 11:53:09;;;;;;;7.72;2.45;;;21.00;99.90;;;;;;5092115;28;20032;-59
2021/08/08 11:55:35;;;;;;;6.47;1.60;;;21.30;99.90;;;;;;5082157;28;20028;-58
2021/08/08 11:58:11;;;;;;;5.20;1.20;;;21.90;99.90;;;;;;5086783;28;20052;-61
2021/08/08 12:00:41;;;;;;;12.48;1.80;;;22.30;99.90;;;;;;5082600;28;20031;-60
2021/08/08 12:03:08;;;;;;;6.30;1.60;;;22.30;99.90;;;;;;5089890;28;20058;-62
2021/08/08 12:05:38;;;;;;;3.55;1.30;;;22.30;99.90;;;;;;5082998;28;20051;-63
2021/08/08 12:08:05;;;;;;;11.07;2.03;;;22.30;99.90;;;;;;5089247;28;20482;-63
2021/08/08 12:10:33;;;;;;;5.40;1.27;;;22.20;99.90;;;;;;5084335;28;20024;-63
2021/08/08 12:12:59;;;;;;;7.22;1.75;;;22.00;99.90;;;;;;5087007;28;20052;-60
2021/08/08 12:15:36;;;;;;;6.05;1.50;;;21.90;99.90;;;;;;5087663;28;20024;-63
2021/08/08 12:18:03;;;;;;;9.20;1.73;;;21.90;99.90;;;;;;5089759;28;20028;-66
2021/08/08 12:20:40;;;;;;;6.47;1.58;;;21.90;99.90;;;;;;5086910;28;20028;-62
2021/08/08 12:23:10;;;;;;;5.03;1.50;;;21.70;99.90;;;;;;5083753;28;20028;-63
2021/08/08 12:25:37;;;;;;;6.47;1.63;;;21.50;99.90;;;;;;5088756;28;20017;-61
2021/08/08 12:28:04;;;;;;;5.75;1.60;;;21.40;99.90;;;;;;5080254;28;20048;-61
2021/08/08 12:30:30;;;;;;;6.07;1.75;;;21.30;99.90;;;;;;5086631;28;20107;-62
2021/08/08 12:33:03;;;;;;;9.38;1.88;;;21.40;99.90;;;;;;5083991;28;20514;-63
2021/08/08 12:35:34;;;;;;;5.85;1.38;;;21.40;99.90;;;;;;5087586;28;20049;-59
2021/08/08 12:38:08;;;;;;;4.85;1.40;;;21.30;99.90;;;;;;5089603;28;20031;-60
2021/08/08 12:40:49;;;;;;;12.93;1.30;;;21.40;99.90;;;;;;5081739;28;20020;-61
2021/08/08 12:43:26;;;;;;;5.00;1.33;;;21.70;99.90;;;;;;5087689;28;20104;-59